createdAt,value
2019-05-21T00:05:49.348Z,98075.14
2019-05-21T00:15:50.136Z,98068.52
2019-05-21T00:25:50.811Z,98061.64
2019-05-21T00:36:29.063Z,98066.09
2019-05-21T00:46:29.734Z,98058.17
2019-05-21T00:56:30.520Z,98070.02
2019-05-21T01:06:31.199Z,98057.45
2019-05-21T01:16:32.004Z,98052.82
2019-05-21T01:26:32.773Z,98034.71
2019-05-21T01:36:33.505Z,98027.73
2019-05-21T01:46:34.274Z,98020.78
2019-05-21T01:56:35.106Z,98024.77
2019-05-21T02:06:35.858Z,98011.80
2019-05-21T02:16:36.851Z,97999.36
2019-05-21T02:26:37.652Z,97968.95
2019-05-21T02:36:38.427Z,98007.60
2019-05-21T02:46:39.176Z,98028.30
2019-05-21T02:56:40.020Z,98026.98
2019-05-21T03:06:41.215Z,98033.70
2019-05-21T03:16:41.936Z,98022.62
2019-05-21T03:26:42.661Z,98031.65
2019-05-21T03:36:43.358Z,98045.43
2019-05-21T03:46:44.058Z,98047.56
2019-05-21T03:56:44.854Z,98043.87
2019-05-21T04:06:51.891Z,98053.42
2019-05-21T04:16:48.276Z,98055.55
2019-05-21T04:26:48.997Z,98057.39
2019-05-21T04:36:49.910Z,98075.42
2019-05-21T04:46:50.582Z,98068.26
2019-05-21T04:56:54.333Z,98080.45
2019-05-21T05:06:55.072Z,98082.58
2019-05-21T05:16:55.714Z,98081.48
2019-05-21T05:26:56.493Z,98087.81
2019-05-21T05:36:57.267Z,98086.73
2019-05-21T05:46:58.012Z,98077.75
2019-05-21T05:56:58.742Z,98081.73
2019-05-21T06:06:59.408Z,98095.48
2019-05-21T06:17:00.192Z,98116.42
2019-05-21T06:27:00.920Z,98119.05
2019-05-21T06:37:01.742Z,98109.76
2019-05-21T06:47:02.583Z,98126.47
2019-05-21T06:57:03.534Z,98134.19
2019-05-21T07:07:05.508Z,98130.25
2019-05-21T07:17:06.161Z,98155.71
2019-05-21T07:27:06.850Z,98168.44
2019-05-21T07:37:07.727Z,98173.20
2019-05-21T07:47:08.524Z,98181.97
2019-05-21T07:57:10.309Z,98201.87
2019-05-21T08:07:11.018Z,98222.28
2019-05-21T08:17:11.696Z,98237.68
2019-05-21T08:27:12.568Z,98245.38
2019-05-21T08:37:13.256Z,98253.30
2019-05-21T08:47:13.998Z,98271.05
2019-05-21T08:57:20.840Z,98281.43
2019-05-21T09:07:21.701Z,98294.16
2019-05-21T09:17:22.524Z,98314.84
2019-05-21T09:27:23.217Z,98342.98
2019-05-21T09:37:23.945Z,98347.49
2019-05-21T09:47:24.747Z,98360.25
2019-05-21T09:57:25.555Z,98367.41
2019-05-21T10:07:38.902Z,98369.22
2019-05-21T10:17:28.898Z,98366.89
2019-05-21T10:27:29.599Z,98384.60
2019-05-21T10:37:30.403Z,98399.71
2019-05-21T10:47:31.189Z,98411.88
2019-05-21T10:57:32.047Z,98429.36
2019-05-21T11:07:32.977Z,98433.96
2019-05-21T11:17:48.319Z,98453.70
2019-05-21T11:27:36.559Z,98470.41
2019-05-21T11:37:37.292Z,98486.89
2019-05-21T11:47:38.184Z,98484.13
2019-05-21T11:57:39.072Z,98486.88
2019-05-21T12:07:40.863Z,98495.05
2019-05-21T12:17:41.600Z,98493.66
2019-05-21T12:27:42.355Z,98531.34
2019-05-21T12:37:43.089Z,98539.73
2019-05-21T12:47:44.792Z,98556.72
2019-05-21T12:57:45.471Z,98577.59
2019-05-21T13:07:47.201Z,98592.84
2019-05-21T13:17:48.078Z,98588.11
2019-05-21T13:27:51.626Z,98567.48
2019-05-21T13:37:52.473Z,98586.19
2019-05-21T13:47:53.388Z,98602.33
2019-05-21T13:57:57.183Z,98608.39
2019-05-21T14:07:58.024Z,98618.55
2019-05-21T14:17:58.794Z,98629.22
2019-05-21T14:27:59.820Z,98641.97
2019-05-21T14:38:00.572Z,98641.97
2019-05-21T14:48:01.412Z,98653.50
2019-05-21T14:58:02.212Z,98653.61
2019-05-21T15:08:03.418Z,98665.88
2019-05-21T15:18:04.390Z,98675.02
2019-05-21T15:28:05.247Z,98669.14
2019-05-21T15:38:06.013Z,98660.63
2019-05-21T15:48:10.843Z,98686.50
2019-05-21T15:58:11.703Z,98687.70
2019-05-21T16:08:12.548Z,98710.91
2019-05-21T16:18:13.339Z,98713.48
2019-05-21T16:28:14.009Z,98727.00
2019-05-21T16:38:15.739Z,98732.66
2019-05-21T16:48:16.454Z,98740.68
2019-05-21T16:58:17.242Z,98741.49
2019-05-21T17:08:17.936Z,98740.43
2019-05-21T17:18:18.624Z,98748.81
2019-05-21T17:28:19.304Z,98753.08
2019-05-21T17:38:19.972Z,98757.26
2019-05-21T17:48:20.852Z,98755.25
2019-05-21T17:58:21.975Z,98760.89
2019-05-21T18:08:25.627Z,98765.87
2019-05-21T18:18:28.349Z,98784.00
2019-05-21T18:28:29.343Z,98789.55
2019-05-21T18:38:30.206Z,98798.59
2019-05-21T18:48:31.991Z,98804.91
2019-05-21T18:58:32.691Z,98829.09
2019-05-21T19:08:33.511Z,98840.58
2019-05-21T19:18:34.391Z,98858.17
2019-05-21T19:28:35.291Z,98855.45
2019-05-21T19:38:37.260Z,98881.80
2019-05-21T19:48:38.186Z,98893.19
2019-05-21T19:58:38.924Z,98902.94
2019-05-21T20:08:40.526Z,98912.92
2019-05-21T20:18:41.189Z,98920.49
2019-05-21T20:28:41.911Z,98924.30
2019-05-21T20:38:42.652Z,98937.67
2019-05-21T20:48:43.328Z,98935.78
2019-05-21T20:58:44.008Z,98933.87
2019-05-21T21:08:44.814Z,98925.18
2019-05-21T21:18:45.711Z,98933.21
2019-05-21T21:28:46.474Z,98941.47
2019-05-21T21:38:47.274Z,98946.72
2019-05-21T21:48:48.183Z,98946.30
2019-05-21T21:58:48.971Z,98948.02
2019-05-21T22:08:49.835Z,98944.45
2019-05-21T22:18:56.559Z,98950.30
2019-05-21T22:29:04.079Z,98957.72
2019-05-21T22:39:07.108Z,98970.78
2019-05-21T22:49:08.888Z,98957.03
2019-05-21T22:59:18.061Z,98958.84
2019-05-21T23:09:22.829Z,98961.91
2019-05-21T23:19:24.373Z,98961.73
2019-05-21T23:29:26.313Z,98947.92
2019-05-21T23:39:27.114Z,98948.59
2019-05-21T23:49:29.906Z,98960.66
2019-05-21T23:59:30.661Z,98951.45
